INDIA METEOROLOGICAL DEPARTMENT, R.M.C. NEW DELHI
Dated:13-07-2020
METARS


Agartala   
VEAT 130730Z 22003KT 5000 BR SCT018 BKN100 32/28 Q1001 NOSIG=
Ahmedabad  
VAAH 130730Z 23005KT 5000 FU SCT020 BKN080 33/27 Q1002 NOSIG=
Allahabad  
VEAB 130730Z 32006KT 6000 SCT025 BKN200 34/28 Q1000 NOSIG=
Aurangabad 
VAAU 130700Z 25004KT 6000 SCT020 SCT025 30/22 Q1007 NOSIG=
Bangalore  
VOBL 130730Z NIL=
Baroda     
VABO 130730Z 19004KT 5000 HZ SCT020 SCT025 33/26 Q1001 NOSIG=
Bhopal     
VABP 130730Z 24009KT 6000 FEW020 BKN025 29/25 Q1005 NOSIG=
Bhubaneswar
VEBS 130730Z 21006KT 5000 HZ BKN018 BKN100 30/28 Q1001 NOSIG=
Bhuntar    
VIBR 130700Z 14006KT 6000 FEW020TCU 32/20 Q1003=
Chennai    
VOMM 130730Z 26008KT 8000 FEW020 SCT025 32/26 Q1004 NOSIG=
Coimbatore 
VOCB 130730Z 20006KT 6000 SCT015 SCT080 29/22 Q1008 NOSIG=
Colombo    
VCBI 130740Z 23008KT 9999 FEW014 BKN016 30/27 Q1007 NOSIG=
Delhi      
VIDP 130730Z 24006KT 5000 HZ FEW035 SCT100 35/23 Q0999 NOSIG=
Dehradun   
VIDN 130730Z 24004KT 6000 SCT030 33/23 Q1001 =
Gauhati    
VEGT 130730Z 28006KT 4500 BR SCT018 FEW025CB BKN090 31/30 Q1001 NOSIG=
Gaya       
VEGY 130730Z 03009KT 5000 -TSRA FEW010 SCT016 FEW030CB BKN080 29/27 Q1000 TEMPO 1500 TSRA=
Gaggal     
VIGG 130700Z 21003KT 6000 SCT030 31/24 Q1005=
Fursatganj 
VERB 130700Z 27005KT 5000 HZ FEW100 SCT200 35/27 Q0997=
Hyderabad  
VOHS 130730Z 27005KT 6000 SCT015 SCT025 FEW030CB BKN100 29/26 Q1008 TEMPO 5000 -TSRA=
Jabalpur   
VAJB 130730Z 27006KT 4000 HZ SCT020 SCT080 31/25 Q1004=
Jaipur     
VIJP 130730Z 27009KT 5000 HZ SCT030 FEW035CB BKN100 33/26 Q1001 TEMPO 1500 TSRA=
Kochi      
VOCI 130730Z 30008KT 2000 RA SCT015 BKN080 30/24 Q1007 NOSIG=
Kolkata    
VECC 130730Z 15006KT 3500 HZ SCT018 BKN100 32/30 Q0999 NOSIG=
Kozhikode  
VOCL 130730Z 33004KT 6000 SCT012 SCT018 BKN080 28/24 Q1006 NOSIG=
Lucknow    
VILK 130730Z VRB02KT 5000 HZ SCT018 SCT025 BKN200 34/25 Q0999 NOSIG=
Ludhiana   
VILD 130730Z 22002KT 5000 HZ SCT030 32/26 Q1000 =
Madurai    
VOMD 130730Z 34003KT 9000 FEW020 SCT090 34/23 Q1006 NOSIG=
Mohanbari  
VEMN 130730Z 03007KT 5000 HZ SCT016 BKN100 32/27 Q1001 NOSIG=
Mumbai     
VABB 130730Z 21003KT 3000 -RA SCT018 SCT025 FEW030CB BKN080 27/27 Q1004 NOSIG=
Nagpur     
VANP 130730Z 32006KT 5000 HZ FEW018 SCT025 33/25 Q1003 NOSIG=
Pantnagar
VIPT 130730Z VRB03KT 5000 HZ FEW020 33/27 Q0999=
Patna      
VEPT 130730Z 14008KT 3500 BR SCT015 BKN090 28/26 Q0999 NOSIG=
Raipur     
VERP 130700Z 25005KT 4000 HZ SCT025 BKN090 31/26 Q1003 NOSIG=
Safdarjung 
VIDD 130730Z 27006KT 4500 HZ FEW035 SCT100 36/24 Q1000 NOSIG=
Shimla     
VISM 130700Z 29006KT 6000 FEW030 26/20 Q1010=
Surat     
VASU 130730Z 17010KT 5000 HZ FEW012 SCT020 SCT080 31/27 Q1002 NOSIG=
Ranchi     
VERC 130730Z 01004KT 3500 HZ SCT018 FEW030CB BKN100 29/25 Q1003 NOSIG=
Trichy     
VOTR 130730Z 30008KT 6000 SCT016 SCT100 34/23 Q1005 NOSIG=
Trivandrum 
VOTV 130730Z 30008KT 6000 FEW015 SCT080 30/25 Q1007 NOSIG=
Udaipur    
VAUD 130730Z 00000KT 5000 HZ SCT030 SCT035 30/24 Q1004 NOSIG=
Varanasi   
VEBN 130700Z 27006KT 5000 HZ FEW025 SCT100 33/25 Q0999 NOSIG=
Vizag      
VOVZ 130730Z 25008KT 6000 FEW018 SCT220 34/24 Q1001 NOSIG=
Male       
VRMM 130700Z 33004KT 9999 FEW017TCU BKN110 29/25 Q1007 TEMPO 5000 -SHRA=
Gan        
VRMG 130700Z 05005KT 9999 FEW018 SCT270 32/26 Q1008 NOSIG=
Kathmandu  
VNKT 130750Z 00000KT 8000 FEW010 FEW025CB SCT030 BKN100 27/21 Q1008 NOSIG CB TO OVERHEAD=
Dhaka      
VGHS 130730Z 19008KT 3500 RA BKN010 FEW025CB OVC100 30/26 Q1001 TEMPO TSRA=
Colombo    
VCBI 130740Z 23008KT 9999 FEW014 BKN016 30/27 Q1007 NOSIG=
Karachi    
OPKC 130730Z 26006KT 5000 FU SCT020 BKN030 35/24 Q0999 NOSIG=
Lahore     
OPLA 130725Z 30006KT 5000 FU FEW040 35/23 Q1000 RMK QFE972 RMK A29.53=
Gorakhpur  
VEGK 130730Z 11005KT 6000 SCT010 SCT025 FEW030TCU BKN100 30/30 Q0999 TEMPO -RA=
Agra       
VIAG 130730Z 28007KT 6000 SCT025 BKN250 37/23 Q0999 NOSIG=
Bagdogra   
VEBD 130730Z 11007KT 6000 SCT012 SCT020 FEW030TCU BKN080 29/26 Q1001 TEMPO 1500M RAIN=
Gwalior    
VIGR 130730Z 32008KT 6000 SCT025 FEW030TCU SCT250 35/25 Q1000 NOSIG=
Pune       
VAPO 130730Z 26007KT 6000 SCT025 SCT090 BKN250 29/22 Q1008 TEMPO 5000 RA=
Jamnagar   
VAJM 130730Z 28008KT 6000 FEW020 FEW025CB SCT025 33/26 Q1001 TEMPO 24015G25KT 2000 TSRA BKN015=
Pathankot   
VIPK 130730Z 25005KT 5000 HZ SCT025 SCT250 33/26 Q1001 NOSIG=